sensor_id;sensor_type;location;lat;lon;timestamp;P1;durP1;ratioP1;P2;durP2;ratioP2
71759;SDS011;59919;48.112;16.280;2024-02-21T00:00:27;2.50;;;1.35;;
71759;SDS011;59919;48.112;16.280;2024-02-21T00:02:58;2.90;;;1.27;;
71759;SDS011;59919;48.112;16.280;2024-02-21T00:05:32;3.80;;;1.30;;
71759;SDS011;59919;48.112;16.280;2024-02-21T00:08:03;4.32;;;0.95;;
71759;SDS011;59919;48.112;16.280;2024-02-21T00:10:35;1.98;;;1.00;;
71759;SDS011;59919;48.112;16.280;2024-02-21T00:13:06;2.63;;;1.20;;
71759;SDS011;59919;48.112;16.280;2024-02-21T00:15:37;3.72;;;1.10;;
71759;SDS011;59919;48.112;16.280;2024-02-21T00:18:08;3.40;;;0.70;;
71759;SDS011;59919;48.112;16.280;2024-02-21T00:20:41;4.13;;;1.20;;
71759;SDS011;59919;48.112;16.280;2024-02-21T00:23:12;4.50;;;1.00;;
71759;SDS011;59919;48.112;16.280;2024-02-21T00:25:43;3.63;;;1.08;;
71759;SDS011;59919;48.112;16.280;2024-02-21T00:28:14;2.70;;;1.20;;
71759;SDS011;59919;48.112;16.280;2024-02-21T00:30:45;1.60;;;0.88;;
71759;SDS011;59919;48.112;16.280;2024-02-21T00:33:18;2.83;;;1.20;;
71759;SDS011;59919;48.112;16.280;2024-02-21T00:35:49;3.53;;;1.02;;
71759;SDS011;59919;48.112;16.280;2024-02-21T00:38:20;1.75;;;1.00;;
71759;SDS011;59919;48.112;16.280;2024-02-21T00:40:51;3.38;;;1.27;;
71759;SDS011;59919;48.112;16.280;2024-02-21T00:43:22;2.03;;;1.17;;
71759;SDS011;59919;48.112;16.280;2024-02-21T00:45:54;3.80;;;1.15;;
71759;SDS011;59919;48.112;16.280;2024-02-21T00:48:26;2.60;;;1.10;;
71759;SDS011;59919;48.112;16.280;2024-02-21T00:50:57;3.42;;;1.25;;
71759;SDS011;59919;48.112;16.280;2024-02-21T00:53:28;2.97;;;1.10;;
71759;SDS011;59919;48.112;16.280;2024-02-21T00:55:59;1.40;;;1.00;;
71759;SDS011;59919;48.112;16.280;2024-02-21T00:58:30;4.13;;;1.20;;
71759;SDS011;59919;48.112;16.280;2024-02-21T01:01:02;2.17;;;0.98;;
71759;SDS011;59919;48.112;16.280;2024-02-21T01:03:33;1.92;;;0.80;;
71759;SDS011;59919;48.112;16.280;2024-02-21T01:06:04;2.38;;;0.90;;
71759;SDS011;59919;48.112;16.280;2024-02-21T01:08:37;2.47;;;0.85;;
71759;SDS011;59919;48.112;16.280;2024-02-21T01:11:08;3.42;;;1.10;;
71759;SDS011;59919;48.112;16.280;2024-02-21T01:13:39;3.58;;;1.15;;
71759;SDS011;59919;48.112;16.280;2024-02-21T01:16:10;4.90;;;1.40;;
71759;SDS011;59919;48.112;16.280;2024-02-21T01:18:41;6.32;;;1.30;;
71759;SDS011;59919;48.112;16.280;2024-02-21T01:21:12;5.20;;;1.10;;
71759;SDS011;59919;48.112;16.280;2024-02-21T01:23:44;6.20;;;1.00;;
71759;SDS011;59919;48.112;16.280;2024-02-21T01:26:15;8.43;;;1.15;;
71759;SDS011;59919;48.112;16.280;2024-02-21T01:28:46;8.50;;;1.10;;
71759;SDS011;59919;48.112;16.280;2024-02-21T01:31:17;4.68;;;1.00;;
71759;SDS011;59919;48.112;16.280;2024-02-21T01:33:48;3.95;;;1.10;;
71759;SDS011;59919;48.112;16.280;2024-02-21T01:36:19;2.35;;;1.33;;
71759;SDS011;59919;48.112;16.280;2024-02-21T01:38:50;3.75;;;1.05;;
71759;SDS011;59919;48.112;16.280;2024-02-21T01:41:21;4.57;;;1.15;;
71759;SDS011;59919;48.112;16.280;2024-02-21T01:43:52;6.20;;;1.00;;
71759;SDS011;59919;48.112;16.280;2024-02-21T01:46:23;7.25;;;1.20;;
71759;SDS011;59919;48.112;16.280;2024-02-21T01:48:58;3.78;;;1.10;;
71759;SDS011;59919;48.112;16.280;2024-02-21T01:51:30;2.65;;;1.08;;
71759;SDS011;59919;48.112;16.280;2024-02-21T01:54:01;5.18;;;1.05;;
71759;SDS011;59919;48.112;16.280;2024-02-21T01:56:32;3.80;;;0.98;;
71759;SDS011;59919;48.112;16.280;2024-02-21T01:59:03;4.32;;;1.17;;
71759;SDS011;59919;48.112;16.280;2024-02-21T02:01:34;2.95;;;1.08;;
71759;SDS011;59919;48.112;16.280;2024-02-21T02:04:06;4.18;;;1.10;;
71759;SDS011;59919;48.112;16.280;2024-02-21T02:06:37;11.48;;;0.95;;
71759;SDS011;59919;48.112;16.280;2024-02-21T02:09:08;2.65;;;1.00;;
71759;SDS011;59919;48.112;16.280;2024-02-21T02:11:39;4.30;;;1.08;;
71759;SDS011;59919;48.112;16.280;2024-02-21T02:14:10;4.10;;;1.30;;
71759;SDS011;59919;48.112;16.280;2024-02-21T02:16:41;3.63;;;1.10;;
71759;SDS011;59919;48.112;16.280;2024-02-21T02:19:12;2.90;;;1.10;;
71759;SDS011;59919;48.112;16.280;2024-02-21T02:21:49;4.72;;;1.08;;
71759;SDS011;59919;48.112;16.280;2024-02-21T02:24:26;5.00;;;1.00;;
71759;SDS011;59919;48.112;16.280;2024-02-21T02:26:57;4.53;;;1.00;;
71759;SDS011;59919;48.112;16.280;2024-02-21T02:29:28;3.63;;;0.82;;
71759;SDS011;59919;48.112;16.280;2024-02-21T02:32:03;4.53;;;1.10;;
71759;SDS011;59919;48.112;16.280;2024-02-21T02:34:34;5.47;;;1.15;;
71759;SDS011;59919;48.112;16.280;2024-02-21T02:37:05;4.78;;;1.20;;
71759;SDS011;59919;48.112;16.280;2024-02-21T02:39:36;1.92;;;1.15;;
71759;SDS011;59919;48.112;16.280;2024-02-21T02:42:07;3.90;;;0.90;;
71759;SDS011;59919;48.112;16.280;2024-02-21T02:44:39;3.13;;;1.00;;
71759;SDS011;59919;48.112;16.280;2024-02-21T02:47:10;2.15;;;0.82;;
71759;SDS011;59919;48.112;16.280;2024-02-21T02:49:41;4.25;;;0.85;;
71759;SDS011;59919;48.112;16.280;2024-02-21T02:52:12;1.65;;;0.73;;
71759;SDS011;59919;48.112;16.280;2024-02-21T02:54:43;2.10;;;1.10;;
71759;SDS011;59919;48.112;16.280;2024-02-21T02:57:14;3.33;;;1.20;;
71759;SDS011;59919;48.112;16.280;2024-02-21T02:59:48;4.03;;;1.13;;
71759;SDS011;59919;48.112;16.280;2024-02-21T03:02:20;3.55;;;1.13;;
71759;SDS011;59919;48.112;16.280;2024-02-21T03:04:51;4.90;;;1.05;;
71759;SDS011;59919;48.112;16.280;2024-02-21T03:07:23;2.08;;;0.90;;
71759;SDS011;59919;48.112;16.280;2024-02-21T03:09:55;1.50;;;0.98;;
71759;SDS011;59919;48.112;16.280;2024-02-21T03:12:26;2.75;;;0.90;;
71759;SDS011;59919;48.112;16.280;2024-02-21T03:14:58;3.47;;;1.00;;
71759;SDS011;59919;48.112;16.280;2024-02-21T03:17:29;2.35;;;0.82;;
71759;SDS011;59919;48.112;16.280;2024-02-21T03:20:03;4.78;;;1.08;;
71759;SDS011;59919;48.112;16.280;2024-02-21T03:22:38;3.30;;;1.15;;
71759;SDS011;59919;48.112;16.280;2024-02-21T03:25:10;1.92;;;0.85;;
71759;SDS011;59919;48.112;16.280;2024-02-21T03:27:41;4.40;;;0.85;;
71759;SDS011;59919;48.112;16.280;2024-02-21T03:30:12;2.05;;;1.08;;
71759;SDS011;59919;48.112;16.280;2024-02-21T03:32:43;3.28;;;0.80;;
71759;SDS011;59919;48.112;16.280;2024-02-21T03:35:14;2.05;;;0.90;;
71759;SDS011;59919;48.112;16.280;2024-02-21T03:37:45;7.22;;;1.30;;
71759;SDS011;59919;48.112;16.280;2024-02-21T03:40:17;1.52;;;1.02;;
71759;SDS011;59919;48.112;16.280;2024-02-21T03:42:48;2.45;;;0.90;;
71759;SDS011;59919;48.112;16.280;2024-02-21T03:45:19;2.42;;;0.80;;
71759;SDS011;59919;48.112;16.280;2024-02-21T03:47:50;2.92;;;0.90;;
71759;SDS011;59919;48.112;16.280;2024-02-21T03:50:37;2.33;;;1.23;;
71759;SDS011;59919;48.112;16.280;2024-02-21T03:53:27;1.95;;;0.70;;
71759;SDS011;59919;48.112;16.280;2024-02-21T03:56:01;3.05;;;0.90;;
71759;SDS011;59919;48.112;16.280;2024-02-21T03:58:34;3.88;;;1.05;;
71759;SDS011;59919;48.112;16.280;2024-02-21T04:01:05;3.35;;;1.05;;
71759;SDS011;59919;48.112;16.280;2024-02-21T04:03:36;2.58;;;0.88;;
71759;SDS011;59919;48.112;16.280;2024-02-21T04:06:07;2.33;;;1.00;;
71759;SDS011;59919;48.112;16.280;2024-02-21T04:08:38;2.00;;;0.98;;
71759;SDS011;59919;48.112;16.280;2024-02-21T04:11:09;2.13;;;0.77;;
71759;SDS011;59919;48.112;16.280;2024-02-21T04:13:40;3.17;;;1.00;;
71759;SDS011;59919;48.112;16.280;2024-02-21T04:16:11;2.63;;;0.80;;
71759;SDS011;59919;48.112;16.280;2024-02-21T04:18:42;2.72;;;1.00;;
71759;SDS011;59919;48.112;16.280;2024-02-21T04:21:14;3.90;;;1.33;;
71759;SDS011;59919;48.112;16.280;2024-02-21T04:23:47;2.75;;;0.90;;
71759;SDS011;59919;48.112;16.280;2024-02-21T04:26:18;4.57;;;1.10;;
71759;SDS011;59919;48.112;16.280;2024-02-21T04:28:49;1.88;;;0.77;;
71759;SDS011;59919;48.112;16.280;2024-02-21T04:31:20;1.70;;;0.73;;
71759;SDS011;59919;48.112;16.280;2024-02-21T04:33:51;2.80;;;0.73;;
71759;SDS011;59919;48.112;16.280;2024-02-21T04:36:22;2.50;;;1.05;;
71759;SDS011;59919;48.112;16.280;2024-02-21T04:38:54;3.22;;;0.98;;
71759;SDS011;59919;48.112;16.280;2024-02-21T04:41:25;3.38;;;0.70;;
71759;SDS011;59919;48.112;16.280;2024-02-21T04:43:56;4.63;;;1.00;;
71759;SDS011;59919;48.112;16.280;2024-02-21T04:46:27;4.03;;;0.95;;
71759;SDS011;59919;48.112;16.280;2024-02-21T04:48:58;3.10;;;0.85;;
71759;SDS011;59919;48.112;16.280;2024-02-21T04:51:29;2.13;;;0.90;;
71759;SDS011;59919;48.112;16.280;2024-02-21T04:54:00;2.30;;;0.80;;
71759;SDS011;59919;48.112;16.280;2024-02-21T04:56:31;2.30;;;0.88;;
71759;SDS011;59919;48.112;16.280;2024-02-21T04:59:02;2.05;;;0.65;;
71759;SDS011;59919;48.112;16.280;2024-02-21T05:01:33;3.50;;;0.80;;
71759;SDS011;59919;48.112;16.280;2024-02-21T05:04:04;2.65;;;0.70;;
71759;SDS011;59919;48.112;16.280;2024-02-21T05:06:39;3.65;;;0.77;;
71759;SDS011;59919;48.112;16.280;2024-02-21T05:09:10;2.70;;;1.00;;
71759;SDS011;59919;48.112;16.280;2024-02-21T05:11:41;2.85;;;1.05;;
71759;SDS011;59919;48.112;16.280;2024-02-21T05:14:12;1.98;;;0.80;;
71759;SDS011;59919;48.112;16.280;2024-02-21T05:16:44;1.30;;;0.70;;
71759;SDS011;59919;48.112;16.280;2024-02-21T05:19:15;2.97;;;0.95;;
71759;SDS011;59919;48.112;16.280;2024-02-21T05:21:46;2.20;;;1.02;;
71759;SDS011;59919;48.112;16.280;2024-02-21T05:24:17;2.63;;;1.00;;
71759;SDS011;59919;48.112;16.280;2024-02-21T05:26:48;2.97;;;0.85;;
71759;SDS011;59919;48.112;16.280;2024-02-21T05:29:19;6.70;;;1.77;;
71759;SDS011;59919;48.112;16.280;2024-02-21T05:34:21;7.07;;;1.35;;
71759;SDS011;59919;48.112;16.280;2024-02-21T05:36:52;13.73;;;1.65;;
71759;SDS011;59919;48.112;16.280;2024-02-21T05:39:24;10.90;;;1.50;;
71759;SDS011;59919;48.112;16.280;2024-02-21T05:41:55;11.55;;;1.13;;
71759;SDS011;59919;48.112;16.280;2024-02-21T05:44:26;11.02;;;1.30;;
71759;SDS011;59919;48.112;16.280;2024-02-21T05:46:57;6.70;;;1.35;;
71759;SDS011;59919;48.112;16.280;2024-02-21T05:49:28;8.50;;;1.15;;
71759;SDS011;59919;48.112;16.280;2024-02-21T05:51:59;7.03;;;1.27;;
71759;SDS011;59919;48.112;16.280;2024-02-21T05:54:30;5.10;;;1.02;;
71759;SDS011;59919;48.112;16.280;2024-02-21T05:57:02;12.25;;;1.50;;
71759;SDS011;59919;48.112;16.280;2024-02-21T05:59:33;9.27;;;1.05;;
71759;SDS011;59919;48.112;16.280;2024-02-21T06:02:06;6.88;;;1.25;;
71759;SDS011;59919;48.112;16.280;2024-02-21T06:04:37;8.55;;;1.48;;
71759;SDS011;59919;48.112;16.280;2024-02-21T06:07:10;8.75;;;1.67;;
71759;SDS011;59919;48.112;16.280;2024-02-21T06:09:41;6.10;;;0.90;;
71759;SDS011;59919;48.112;16.280;2024-02-21T06:12:12;7.82;;;1.75;;
71759;SDS011;59919;48.112;16.280;2024-02-21T06:14:43;3.20;;;1.42;;
71759;SDS011;59919;48.112;16.280;2024-02-21T06:17:14;4.75;;;1.13;;
71759;SDS011;59919;48.112;16.280;2024-02-21T06:19:45;10.50;;;1.40;;
71759;SDS011;59919;48.112;16.280;2024-02-21T06:22:16;9.50;;;1.60;;
71759;SDS011;59919;48.112;16.280;2024-02-21T06:24:47;8.23;;;1.67;;
71759;SDS011;59919;48.112;16.280;2024-02-21T06:27:18;6.55;;;1.50;;
71759;SDS011;59919;48.112;16.280;2024-02-21T06:29:49;7.32;;;1.20;;
71759;SDS011;59919;48.112;16.280;2024-02-21T06:32:20;5.40;;;1.63;;
71759;SDS011;59919;48.112;16.280;2024-02-21T06:34:51;4.85;;;1.50;;
71759;SDS011;59919;48.112;16.280;2024-02-21T06:37:22;3.90;;;1.23;;
71759;SDS011;59919;48.112;16.280;2024-02-21T06:39:53;5.05;;;1.30;;
71759;SDS011;59919;48.112;16.280;2024-02-21T06:42:25;6.13;;;1.30;;
71759;SDS011;59919;48.112;16.280;2024-02-21T06:44:56;4.72;;;1.38;;
71759;SDS011;59919;48.112;16.280;2024-02-21T06:47:27;2.30;;;1.30;;
71759;SDS011;59919;48.112;16.280;2024-02-21T06:49:58;6.75;;;1.15;;
71759;SDS011;59919;48.112;16.280;2024-02-21T06:52:29;5.35;;;1.25;;
71759;SDS011;59919;48.112;16.280;2024-02-21T06:55:01;11.32;;;1.58;;
71759;SDS011;59919;48.112;16.280;2024-02-21T06:57:32;3.75;;;1.40;;
71759;SDS011;59919;48.112;16.280;2024-02-21T07:00:03;2.40;;;1.13;;
71759;SDS011;59919;48.112;16.280;2024-02-21T07:02:38;3.63;;;1.60;;
71759;SDS011;59919;48.112;16.280;2024-02-21T07:05:09;4.93;;;1.13;;
71759;SDS011;59919;48.112;16.280;2024-02-21T07:07:40;3.28;;;1.20;;
71759;SDS011;59919;48.112;16.280;2024-02-21T07:10:11;4.45;;;1.05;;
71759;SDS011;59919;48.112;16.280;2024-02-21T07:12:42;3.92;;;1.02;;
71759;SDS011;59919;48.112;16.280;2024-02-21T07:15:14;4.28;;;1.38;;
71759;SDS011;59919;48.112;16.280;2024-02-21T07:17:45;4.45;;;1.20;;
71759;SDS011;59919;48.112;16.280;2024-02-21T07:20:16;4.30;;;1.15;;
71759;SDS011;59919;48.112;16.280;2024-02-21T07:22:47;3.78;;;1.05;;
71759;SDS011;59919;48.112;16.280;2024-02-21T07:25:18;4.43;;;1.20;;
71759;SDS011;59919;48.112;16.280;2024-02-21T07:27:49;4.72;;;1.60;;
71759;SDS011;59919;48.112;16.280;2024-02-21T07:30:20;4.25;;;1.45;;
71759;SDS011;59919;48.112;16.280;2024-02-21T07:32:51;7.53;;;1.60;;
71759;SDS011;59919;48.112;16.280;2024-02-21T07:35:22;5.95;;;1.60;;
71759;SDS011;59919;48.112;16.280;2024-02-21T07:37:53;4.90;;;1.35;;
71759;SDS011;59919;48.112;16.280;2024-02-21T07:40:24;3.60;;;1.25;;
71759;SDS011;59919;48.112;16.280;2024-02-21T07:42:55;6.85;;;1.50;;
71759;SDS011;59919;48.112;16.280;2024-02-21T07:45:26;5.63;;;1.42;;
71759;SDS011;59919;48.112;16.280;2024-02-21T07:47:57;3.60;;;1.67;;
71759;SDS011;59919;48.112;16.280;2024-02-21T07:50:28;3.95;;;1.25;;
71759;SDS011;59919;48.112;16.280;2024-02-21T07:52:59;4.55;;;1.38;;
71759;SDS011;59919;48.112;16.280;2024-02-21T07:55:31;3.65;;;1.60;;
71759;SDS011;59919;48.112;16.280;2024-02-21T07:58:02;3.30;;;1.40;;
71759;SDS011;59919;48.112;16.280;2024-02-21T08:00:33;5.43;;;1.30;;
71759;SDS011;59919;48.112;16.280;2024-02-21T08:03:04;2.13;;;1.02;;
71759;SDS011;59919;48.112;16.280;2024-02-21T08:05:35;4.32;;;1.38;;
71759;SDS011;59919;48.112;16.280;2024-02-21T08:08:06;2.10;;;1.42;;
71759;SDS011;59919;48.112;16.280;2024-02-21T08:10:39;4.65;;;1.13;;
71759;SDS011;59919;48.112;16.280;2024-02-21T08:13:10;4.45;;;1.13;;
71759;SDS011;59919;48.112;16.280;2024-02-21T08:15:41;2.40;;;1.10;;
71759;SDS011;59919;48.112;16.280;2024-02-21T08:18:12;4.05;;;1.30;;
71759;SDS011;59919;48.112;16.280;2024-02-21T08:20:43;2.50;;;1.00;;
71759;SDS011;59919;48.112;16.280;2024-02-21T08:23:18;4.95;;;1.50;;
71759;SDS011;59919;48.112;16.280;2024-02-21T08:25:49;2.65;;;1.30;;
71759;SDS011;59919;48.112;16.280;2024-02-21T08:28:20;4.03;;;1.50;;
71759;SDS011;59919;48.112;16.280;2024-02-21T08:30:51;2.42;;;1.30;;
71759;SDS011;59919;48.112;16.280;2024-02-21T08:33:22;3.00;;;1.20;;
71759;SDS011;59919;48.112;16.280;2024-02-21T08:35:55;2.67;;;1.35;;
71759;SDS011;59919;48.112;16.280;2024-02-21T08:38:27;2.03;;;1.20;;
71759;SDS011;59919;48.112;16.280;2024-02-21T08:40:58;3.58;;;1.55;;
71759;SDS011;59919;48.112;16.280;2024-02-21T08:43:29;3.03;;;1.50;;
71759;SDS011;59919;48.112;16.280;2024-02-21T08:46:01;4.53;;;1.58;;
71759;SDS011;59919;48.112;16.280;2024-02-21T08:48:32;2.15;;;1.42;;
71759;SDS011;59919;48.112;16.280;2024-02-21T08:51:03;2.38;;;1.13;;
71759;SDS011;59919;48.112;16.280;2024-02-21T08:53:35;2.97;;;1.23;;
71759;SDS011;59919;48.112;16.280;2024-02-21T08:56:06;3.50;;;1.30;;
71759;SDS011;59919;48.112;16.280;2024-02-21T08:58:39;5.85;;;1.63;;
71759;SDS011;59919;48.112;16.280;2024-02-21T09:01:10;2.85;;;1.42;;
71759;SDS011;59919;48.112;16.280;2024-02-21T09:03:41;5.43;;;1.05;;
71759;SDS011;59919;48.112;16.280;2024-02-21T09:06:14;3.90;;;1.50;;
71759;SDS011;59919;48.112;16.280;2024-02-21T09:08:46;4.13;;;1.30;;
71759;SDS011;59919;48.112;16.280;2024-02-21T09:11:17;3.13;;;1.45;;
71759;SDS011;59919;48.112;16.280;2024-02-21T09:13:48;3.50;;;1.27;;
71759;SDS011;59919;48.112;16.280;2024-02-21T09:16:19;1.98;;;1.20;;
71759;SDS011;59919;48.112;16.280;2024-02-21T09:18:50;2.33;;;1.40;;
71759;SDS011;59919;48.112;16.280;2024-02-21T09:21:21;3.67;;;1.25;;
71759;SDS011;59919;48.112;16.280;2024-02-21T09:23:52;1.95;;;1.17;;
71759;SDS011;59919;48.112;16.280;2024-02-21T09:26:23;6.25;;;1.50;;
71759;SDS011;59919;48.112;16.280;2024-02-21T09:28:54;3.05;;;1.27;;
71759;SDS011;59919;48.112;16.280;2024-02-21T09:31:25;2.30;;;1.20;;
71759;SDS011;59919;48.112;16.280;2024-02-21T09:33:56;3.30;;;1.23;;
71759;SDS011;59919;48.112;16.280;2024-02-21T09:36:27;3.45;;;1.70;;
71759;SDS011;59919;48.112;16.280;2024-02-21T09:38:58;3.88;;;1.20;;
71759;SDS011;59919;48.112;16.280;2024-02-21T09:41:29;5.05;;;1.30;;
71759;SDS011;59919;48.112;16.280;2024-02-21T09:44:01;3.40;;;1.20;;
71759;SDS011;59919;48.112;16.280;2024-02-21T09:49:29;3.70;;;1.20;;
71759;SDS011;59919;48.112;16.280;2024-02-21T09:52:04;4.53;;;1.10;;
71759;SDS011;59919;48.112;16.280;2024-02-21T09:54:36;2.75;;;1.15;;
71759;SDS011;59919;48.112;16.280;2024-02-21T09:57:08;2.97;;;1.15;;
71759;SDS011;59919;48.112;16.280;2024-02-21T09:59:39;2.47;;;0.95;;
71759;SDS011;59919;48.112;16.280;2024-02-21T10:02:12;1.58;;;1.05;;
71759;SDS011;59919;48.112;16.280;2024-02-21T10:04:43;2.30;;;1.00;;
71759;SDS011;59919;48.112;16.280;2024-02-21T10:07:15;1.23;;;1.10;;
71759;SDS011;59919;48.112;16.280;2024-02-21T10:09:46;2.05;;;1.40;;
71759;SDS011;59919;48.112;16.280;2024-02-21T10:12:18;2.38;;;1.33;;
71759;SDS011;59919;48.112;16.280;2024-02-21T10:14:59;2.38;;;1.10;;
71759;SDS011;59919;48.112;16.280;2024-02-21T10:17:34;2.90;;;1.10;;
71759;SDS011;59919;48.112;16.280;2024-02-21T10:20:09;2.67;;;1.08;;
71759;SDS011;59919;48.112;16.280;2024-02-21T10:22:41;3.17;;;1.30;;
71759;SDS011;59919;48.112;16.280;2024-02-21T10:25:13;2.67;;;1.20;;
71759;SDS011;59919;48.112;16.280;2024-02-21T10:27:45;2.97;;;1.20;;
71759;SDS011;59919;48.112;16.280;2024-02-21T10:30:16;2.65;;;1.15;;
71759;SDS011;59919;48.112;16.280;2024-02-21T10:32:51;2.20;;;1.10;;
71759;SDS011;59919;48.112;16.280;2024-02-21T10:37:59;1.63;;;1.10;;
71759;SDS011;59919;48.112;16.280;2024-02-21T10:40:30;2.22;;;1.05;;
71759;SDS011;59919;48.112;16.280;2024-02-21T10:43:02;4.90;;;1.30;;
71759;SDS011;59919;48.112;16.280;2024-02-21T10:45:34;2.90;;;1.13;;
71759;SDS011;59919;48.112;16.280;2024-02-21T10:50:56;2.13;;;1.00;;
71759;SDS011;59919;48.112;16.280;2024-02-21T10:53:48;1.55;;;0.88;;
71759;SDS011;59919;48.112;16.280;2024-02-21T10:56:29;3.15;;;1.10;;
71759;SDS011;59919;48.112;16.280;2024-02-21T10:59:02;2.95;;;1.17;;
71759;SDS011;59919;48.112;16.280;2024-02-21T11:01:34;2.05;;;1.33;;
71759;SDS011;59919;48.112;16.280;2024-02-21T11:04:06;4.32;;;1.30;;
71759;SDS011;59919;48.112;16.280;2024-02-21T11:06:39;3.40;;;0.90;;
71759;SDS011;59919;48.112;16.280;2024-02-21T11:09:11;2.65;;;1.13;;
71759;SDS011;59919;48.112;16.280;2024-02-21T11:11:43;3.45;;;0.98;;
71759;SDS011;59919;48.112;16.280;2024-02-21T11:14:18;3.28;;;1.13;;
71759;SDS011;59919;48.112;16.280;2024-02-21T11:16:50;3.45;;;1.13;;
71759;SDS011;59919;48.112;16.280;2024-02-21T11:19:22;3.42;;;1.00;;
71759;SDS011;59919;48.112;16.280;2024-02-21T11:21:56;2.80;;;1.00;;
71759;SDS011;59919;48.112;16.280;2024-02-21T11:24:31;2.95;;;1.45;;
71759;SDS011;59919;48.112;16.280;2024-02-21T11:27:13;3.15;;;1.30;;
71759;SDS011;59919;48.112;16.280;2024-02-21T11:29:48;1.92;;;1.10;;
71759;SDS011;59919;48.112;16.280;2024-02-21T11:32:23;1.60;;;0.90;;
71759;SDS011;59919;48.112;16.280;2024-02-21T11:34:59;4.00;;;1.30;;
71759;SDS011;59919;48.112;16.280;2024-02-21T11:37:36;1.65;;;1.20;;
71759;SDS011;59919;48.112;16.280;2024-02-21T11:40:07;1.85;;;1.00;;
71759;SDS011;59919;48.112;16.280;2024-02-21T11:42:40;1.55;;;0.93;;
71759;SDS011;59919;48.112;16.280;2024-02-21T11:45:11;3.58;;;1.65;;
71759;SDS011;59919;48.112;16.280;2024-02-21T11:47:46;3.35;;;1.20;;
71759;SDS011;59919;48.112;16.280;2024-02-21T11:50:17;3.15;;;1.02;;
71759;SDS011;59919;48.112;16.280;2024-02-21T11:52:48;2.55;;;1.10;;
71759;SDS011;59919;48.112;16.280;2024-02-21T11:55:19;1.83;;;1.02;;
71759;SDS011;59919;48.112;16.280;2024-02-21T11:57:51;1.80;;;1.00;;
71759;SDS011;59919;48.112;16.280;2024-02-21T12:00:22;3.17;;;1.30;;
71759;SDS011;59919;48.112;16.280;2024-02-21T12:02:55;2.03;;;1.20;;
71759;SDS011;59919;48.112;16.280;2024-02-21T12:05:31;2.75;;;1.08;;
71759;SDS011;59919;48.112;16.280;2024-02-21T12:08:02;1.60;;;1.10;;
71759;SDS011;59919;48.112;16.280;2024-02-21T12:10:35;3.03;;;1.00;;
71759;SDS011;59919;48.112;16.280;2024-02-21T12:13:07;1.95;;;1.00;;
71759;SDS011;59919;48.112;16.280;2024-02-21T12:15:39;2.83;;;1.20;;
71759;SDS011;59919;48.112;16.280;2024-02-21T12:18:11;2.35;;;1.30;;
71759;SDS011;59919;48.112;16.280;2024-02-21T12:20:42;2.00;;;1.10;;
71759;SDS011;59919;48.112;16.280;2024-02-21T12:23:14;1.67;;;1.05;;
71759;SDS011;59919;48.112;16.280;2024-02-21T12:25:46;3.05;;;1.27;;
71759;SDS011;59919;48.112;16.280;2024-02-21T12:28:17;2.15;;;0.98;;
71759;SDS011;59919;48.112;16.280;2024-02-21T12:30:48;1.70;;;1.00;;
71759;SDS011;59919;48.112;16.280;2024-02-21T12:33:20;1.48;;;1.05;;
71759;SDS011;59919;48.112;16.280;2024-02-21T12:35:52;1.80;;;1.00;;
71759;SDS011;59919;48.112;16.280;2024-02-21T12:38:25;1.75;;;0.90;;
71759;SDS011;59919;48.112;16.280;2024-02-21T12:40:56;2.10;;;0.90;;
71759;SDS011;59919;48.112;16.280;2024-02-21T12:43:27;2.03;;;1.10;;
71759;SDS011;59919;48.112;16.280;2024-02-21T12:45:59;1.90;;;0.80;;
71759;SDS011;59919;48.112;16.280;2024-02-21T12:48:30;2.10;;;0.90;;
71759;SDS011;59919;48.112;16.280;2024-02-21T12:51:01;1.92;;;1.27;;
71759;SDS011;59919;48.112;16.280;2024-02-21T12:53:33;2.28;;;1.00;;
71759;SDS011;59919;48.112;16.280;2024-02-21T12:56:04;2.10;;;1.23;;
71759;SDS011;59919;48.112;16.280;2024-02-21T12:58:38;2.72;;;1.20;;
71759;SDS011;59919;48.112;16.280;2024-02-21T13:01:09;3.85;;;1.30;;
71759;SDS011;59919;48.112;16.280;2024-02-21T13:03:40;3.45;;;1.20;;
71759;SDS011;59919;48.112;16.280;2024-02-21T13:06:11;4.78;;;1.10;;
71759;SDS011;59919;48.112;16.280;2024-02-21T13:08:42;3.65;;;1.30;;
71759;SDS011;59919;48.112;16.280;2024-02-21T13:11:15;1.85;;;1.02;;
71759;SDS011;59919;48.112;16.280;2024-02-21T13:13:46;2.05;;;1.23;;
71759;SDS011;59919;48.112;16.280;2024-02-21T13:16:17;2.30;;;1.00;;
71759;SDS011;59919;48.112;16.280;2024-02-21T13:18:48;2.78;;;0.90;;
71759;SDS011;59919;48.112;16.280;2024-02-21T13:21:19;1.40;;;1.05;;
71759;SDS011;59919;48.112;16.280;2024-02-21T13:23:51;2.53;;;1.13;;
71759;SDS011;59919;48.112;16.280;2024-02-21T13:26:22;2.60;;;1.20;;
71759;SDS011;59919;48.112;16.280;2024-02-21T13:28:53;1.45;;;1.00;;
71759;SDS011;59919;48.112;16.280;2024-02-21T13:31:24;2.42;;;1.17;;
71759;SDS011;59919;48.112;16.280;2024-02-21T13:33:55;2.78;;;1.15;;
71759;SDS011;59919;48.112;16.280;2024-02-21T13:36:26;3.80;;;1.20;;
71759;SDS011;59919;48.112;16.280;2024-02-21T13:38:57;1.20;;;0.90;;
71759;SDS011;59919;48.112;16.280;2024-02-21T13:41:28;4.63;;;1.00;;
71759;SDS011;59919;48.112;16.280;2024-02-21T13:44:00;3.60;;;0.90;;
71759;SDS011;59919;48.112;16.280;2024-02-21T13:46:31;3.80;;;1.17;;
71759;SDS011;59919;48.112;16.280;2024-02-21T13:49:03;1.88;;;0.82;;
71759;SDS011;59919;48.112;16.280;2024-02-21T13:51:38;3.55;;;0.93;;
71759;SDS011;59919;48.112;16.280;2024-02-21T13:54:11;2.85;;;0.80;;
71759;SDS011;59919;48.112;16.280;2024-02-21T13:56:45;2.72;;;1.00;;
71759;SDS011;59919;48.112;16.280;2024-02-21T13:59:16;1.48;;;0.93;;
71759;SDS011;59919;48.112;16.280;2024-02-21T14:01:47;1.92;;;1.13;;
71759;SDS011;59919;48.112;16.280;2024-02-21T14:04:18;2.10;;;0.95;;
71759;SDS011;59919;48.112;16.280;2024-02-21T14:06:50;2.17;;;1.05;;
71759;SDS011;59919;48.112;16.280;2024-02-21T14:09:23;1.10;;;0.80;;
71759;SDS011;59919;48.112;16.280;2024-02-21T14:11:54;1.27;;;0.90;;
71759;SDS011;59919;48.112;16.280;2024-02-21T14:14:25;1.15;;;0.80;;
71759;SDS011;59919;48.112;16.280;2024-02-21T14:16:56;2.25;;;1.02;;
71759;SDS011;59919;48.112;16.280;2024-02-21T14:19:27;1.52;;;0.88;;
71759;SDS011;59919;48.112;16.280;2024-02-21T14:21:58;1.88;;;1.00;;
71759;SDS011;59919;48.112;16.280;2024-02-21T14:24:29;1.77;;;0.80;;
71759;SDS011;59919;48.112;16.280;2024-02-21T14:27:00;1.45;;;0.90;;
71759;SDS011;59919;48.112;16.280;2024-02-21T14:29:31;2.08;;;0.90;;
71759;SDS011;59919;48.112;16.280;2024-02-21T14:32:02;2.70;;;1.00;;
71759;SDS011;59919;48.112;16.280;2024-02-21T14:34:33;3.08;;;0.90;;
71759;SDS011;59919;48.112;16.280;2024-02-21T14:37:04;1.95;;;0.80;;
71759;SDS011;59919;48.112;16.280;2024-02-21T14:39:36;1.85;;;0.80;;
71759;SDS011;59919;48.112;16.280;2024-02-21T14:42:07;2.03;;;1.00;;
71759;SDS011;59919;48.112;16.280;2024-02-21T14:44:40;2.05;;;0.90;;
71759;SDS011;59919;48.112;16.280;2024-02-21T14:47:11;2.58;;;1.00;;
71759;SDS011;59919;48.112;16.280;2024-02-21T14:49:42;3.10;;;0.93;;
71759;SDS011;59919;48.112;16.280;2024-02-21T14:52:14;1.38;;;0.65;;
71759;SDS011;59919;48.112;16.280;2024-02-21T14:54:47;1.88;;;0.85;;
71759;SDS011;59919;48.112;16.280;2024-02-21T14:57:22;2.05;;;0.85;;
71759;SDS011;59919;48.112;16.280;2024-02-21T14:59:54;1.65;;;0.90;;
71759;SDS011;59919;48.112;16.280;2024-02-21T15:02:29;1.75;;;0.90;;
71759;SDS011;59919;48.112;16.280;2024-02-21T15:05:00;1.55;;;0.70;;
71759;SDS011;59919;48.112;16.280;2024-02-21T15:07:32;1.45;;;0.90;;
71759;SDS011;59919;48.112;16.280;2024-02-21T15:10:03;1.65;;;0.70;;